Time;durP1;ratioP1;P1;durP2;ratioP2;P2;SDS_P1;SDS_P2;PMS_P1;PMS_P2;Temp;Humidity;BMP_temperature;BMP_pressure;BME280_temperature;BME280_humidity;BME280_pressure;Samples;Min_cycle;Max_cycle;Signal;HPM_P1;HPM_P2
2021/05/02 00:00:31;;;;;;;37.25;25.27;;;6.80;99.90;;;;;;5103569;28;20292;-79
2021/05/02 00:02:59;;;;;;;41.67;24.80;;;6.80;99.90;;;;;;5112384;28;20575;-80
2021/05/02 00:05:27;;;;;;;36.85;25.25;;;6.80;99.90;;;;;;5092233;28;20202;-80
2021/05/02 00:07:55;;;;;;;31.42;22.95;;;6.60;99.90;;;;;;5106714;28;20206;-80
2021/05/02 00:10:24;;;;;;;34.33;26.13;;;6.60;99.90;;;;;;5100252;28;20197;-80
2021/05/02 00:12:51;;;;;;;34.10;24.80;;;6.50;99.90;;;;;;5111915;28;20206;-78
2021/05/02 00:15:21;;;;;;;33.05;25.23;;;6.60;99.90;;;;;;5093316;28;20285;-79
2021/05/02 00:17:50;;;;;;;33.78;24.50;;;6.50;99.90;;;;;;5091896;28;20238;-79
2021/05/02 00:20:18;;;;;;;37.20;26.77;;;6.60;99.90;;;;;;5094767;28;20203;-79
2021/05/02 00:22:46;;;;;;;31.17;23.05;;;6.60;99.90;;;;;;5100874;28;20201;-79
2021/05/02 00:25:15;;;;;;;39.60;27.65;;;6.60;99.90;;;;;;5098908;28;20195;-79
2021/05/02 00:27:42;;;;;;;37.42;26.27;;;6.60;99.90;;;;;;5090973;28;20213;-79
2021/05/02 00:30:11;;;;;;;32.58;23.85;;;6.60;99.90;;;;;;5092156;28;20238;-79
2021/05/02 00:32:40;;;;;;;33.25;25.17;;;6.50;99.90;;;;;;5100955;28;20309;-79
2021/05/02 00:35:08;;;;;;;32.80;23.30;;;6.60;99.90;;;;;;5095207;28;20241;-78
2021/05/02 00:37:37;;;;;;;36.17;25.48;;;6.50;99.90;;;;;;5100064;28;20698;-79
2021/05/02 00:40:07;;;;;;;32.92;25.45;;;6.40;99.90;;;;;;5100664;28;20280;-78
2021/05/02 00:42:35;;;;;;;37.08;23.48;;;6.50;99.90;;;;;;5104266;28;20294;-79
2021/05/02 00:45:06;;;;;;;32.30;23.58;;;6.40;99.90;;;;;;5109035;28;20279;-79
2021/05/02 00:47:35;;;;;;;33.20;24.75;;;6.30;99.90;;;;;;5098725;28;20289;-79
2021/05/02 00:50:07;;;;;;;36.88;25.75;;;6.30;99.90;;;;;;5099517;28;20206;-79
2021/05/02 00:52:45;;;;;;;33.90;24.55;;;6.30;99.90;;;;;;5091265;28;20552;-79
2021/05/02 00:55:14;;;;;;;33.40;25.00;;;6.40;99.90;;;;;;5092901;28;20260;-79
2021/05/02 00:57:50;;;;;;;36.53;25.05;;;6.50;99.90;;;;;;5089677;28;20202;-79
2021/05/02 01:00:20;;;;;;;33.65;24.45;;;6.60;99.90;;;;;;5105129;28;20555;-79
2021/05/02 01:02:47;;;;;;;33.47;24.55;;;6.50;99.90;;;;;;5098566;28;20614;-79
2021/05/02 01:05:14;;;;;;;36.92;25.00;;;6.50;99.90;;;;;;5083538;28;20198;-79
2021/05/02 01:07:44;;;;;;;39.08;26.10;;;6.40;99.90;;;;;;5091281;28;20282;-79
2021/05/02 01:10:16;;;;;;;36.38;26.23;;;6.40;99.90;;;;;;5090992;28;20210;-78
2021/05/02 01:12:45;;;;;;;37.15;25.55;;;6.40;99.90;;;;;;5087071;28;20226;-79
2021/05/02 01:15:19;;;;;;;36.25;26.10;;;6.40;99.90;;;;;;5084547;28;20199;-79
2021/05/02 01:17:52;;;;;;;38.38;27.00;;;6.40;99.90;;;;;;5092139;28;20700;-79
2021/05/02 01:20:20;;;;;;;33.83;25.15;;;6.40;99.90;;;;;;5089933;28;20256;-79
2021/05/02 01:22:52;;;;;;;34.45;25.98;;;6.40;99.90;;;;;;5083230;28;20223;-80
2021/05/02 01:25:22;;;;;;;34.60;25.38;;;6.50;99.90;;;;;;5109416;28;20201;-79
2021/05/02 01:27:53;;;;;;;30.58;24.60;;;6.50;99.90;;;;;;5104015;28;20187;-79
2021/05/02 01:30:22;;;;;;;32.75;25.20;;;6.60;99.90;;;;;;5104682;28;20208;-79
2021/05/02 01:32:50;;;;;;;32.42;25.95;;;6.60;99.90;;;;;;5097658;28;20203;-79
2021/05/02 01:35:17;;;;;;;31.88;24.70;;;6.60;99.90;;;;;;5090731;28;20203;-81
2021/05/02 01:37:47;;;;;;;35.97;25.25;;;6.70;99.90;;;;;;5088490;28;20248;-79
2021/05/02 01:40:15;;;;;;;37.42;26.80;;;6.60;99.90;;;;;;5106156;28;20575;-80
2021/05/02 01:42:44;;;;;;;32.35;25.10;;;6.60;99.90;;;;;;5110458;28;20190;-80
2021/05/02 01:45:12;;;;;;;36.40;25.35;;;6.60;99.90;;;;;;5108776;28;20194;-79
2021/05/02 01:47:46;;;;;;;32.67;23.92;;;6.40;99.90;;;;;;5110900;28;20201;-79
2021/05/02 01:50:14;;;;;;;31.48;24.35;;;6.50;99.90;;;;;;5094935;28;20202;-79
2021/05/02 01:52:45;;;;;;;33.58;25.42;;;6.40;99.90;;;;;;5104455;28;20698;-79
2021/05/02 01:55:15;;;;;;;30.35;24.90;;;6.50;99.90;;;;;;5090805;28;20285;-79
2021/05/02 01:57:46;;;;;;;32.13;23.75;;;6.50;99.90;;;;;;5103662;28;20285;-79
2021/05/02 02:00:27;;;;;;;29.85;23.55;;;6.50;99.90;;;;;;5096881;28;20214;-80
2021/05/02 02:03:04;;;;;;;31.35;22.67;;;6.40;99.90;;;;;;5106723;28;20262;-79
2021/05/02 02:05:36;;;;;;;32.00;23.80;;;6.40;99.90;;;;;;5090005;28;20199;-79
2021/05/02 02:08:07;;;;;;;30.58;23.20;;;6.40;99.90;;;;;;5087167;28;20222;-80
2021/05/02 02:10:35;;;;;;;29.70;23.95;;;6.30;99.90;;;;;;5108409;28;20194;-78
2021/05/02 02:13:04;;;;;;;32.45;24.10;;;6.30;99.90;;;;;;5101348;28;20207;-79
2021/05/02 02:15:31;;;;;;;30.85;24.70;;;6.10;99.90;;;;;;5110352;28;20280;-80
2021/05/02 02:17:58;;;;;;;32.88;26.48;;;6.20;99.90;;;;;;5102467;28;20243;-79
2021/05/02 02:20:26;;;;;;;31.88;25.40;;;6.20;99.90;;;;;;5105145;28;20191;-79
2021/05/02 02:22:57;;;;;;;31.77;24.98;;;6.30;99.90;;;;;;5093613;28;20702;-78
2021/05/02 02:25:28;;;;;;;29.08;24.70;;;6.40;99.90;;;;;;5093943;28;20202;-79
2021/05/02 02:27:57;;;;;;;36.80;26.42;;;6.40;99.90;;;;;;5105871;28;20204;-79
2021/05/02 02:30:26;;;;;;;34.03;25.42;;;6.40;99.90;;;;;;5099490;28;20209;-80
2021/05/02 02:32:57;;;;;;;36.40;27.35;;;6.20;99.90;;;;;;5101108;28;20210;-79
2021/05/02 02:35:26;;;;;;;36.53;25.27;;;6.20;99.90;;;;;;5095524;28;20545;-79
2021/05/02 02:37:55;;;;;;;31.30;25.35;;;6.20;99.90;;;;;;5106813;28;20582;-79
2021/05/02 02:40:22;;;;;;;33.28;26.25;;;6.20;99.90;;;;;;5099804;28;20201;-79
2021/05/02 02:42:51;;;;;;;35.22;27.80;;;6.20;99.90;;;;;;5110383;28;20536;-79
2021/05/02 02:45:19;;;;;;;39.78;26.88;;;6.20;99.90;;;;;;5094494;28;20195;-80
2021/05/02 02:47:48;;;;;;;33.22;24.70;;;6.20;99.90;;;;;;5108575;28;20251;-80
2021/05/02 02:50:17;;;;;;;32.95;25.80;;;6.30;99.90;;;;;;5097608;28;20206;-80
2021/05/02 02:52:46;;;;;;;34.33;27.40;;;6.20;99.90;;;;;;5092740;28;20720;-79
2021/05/02 02:55:14;;;;;;;33.55;26.60;;;6.30;99.90;;;;;;5109870;28;20205;-79
2021/05/02 02:57:46;;;;;;;43.47;27.92;;;6.20;99.90;;;;;;5097925;28;20201;-79
2021/05/02 03:00:13;;;;;;;37.35;26.85;;;6.30;99.90;;;;;;5091572;28;20205;-80
2021/05/02 03:02:45;;;;;;;38.13;27.77;;;6.40;99.90;;;;;;5089274;28;20558;-80
2021/05/02 03:05:15;;;;;;;37.25;27.95;;;6.50;99.90;;;;;;5088972;28;20683;-79
2021/05/02 03:07:42;;;;;;;34.55;27.85;;;6.50;99.90;;;;;;5103624;28;20230;-80
2021/05/02 03:10:13;;;;;;;32.80;26.13;;;6.50;99.90;;;;;;5102034;28;20205;-79
2021/05/02 03:12:40;;;;;;;38.60;27.52;;;6.50;99.90;;;;;;5113177;28;20224;-79
2021/05/02 03:15:07;;;;;;;38.17;27.48;;;6.50;99.90;;;;;;5094663;28;20190;-79
2021/05/02 03:17:36;;;;;;;36.78;26.38;;;6.50;99.90;;;;;;5102091;28;20201;-80
2021/05/02 03:20:06;;;;;;;32.88;27.52;;;6.50;99.90;;;;;;5100961;28;20202;-80
2021/05/02 03:22:42;;;;;;;40.40;27.80;;;6.50;99.90;;;;;;5101693;28;20332;-79
2021/05/02 03:25:14;;;;;;;34.05;25.92;;;6.50;99.90;;;;;;5111117;28;20197;-79
2021/05/02 03:27:46;;;;;;;38.55;27.70;;;6.50;99.90;;;;;;5102524;28;20202;-79
2021/05/02 03:30:15;;;;;;;33.42;26.35;;;6.40;99.90;;;;;;5091968;28;20286;-79
2021/05/02 03:32:48;;;;;;;43.78;28.45;;;6.40;99.90;;;;;;5092401;28;20219;-80
2021/05/02 03:35:17;;;;;;;35.50;27.77;;;6.50;99.90;;;;;;5071998;28;20246;-79
2021/05/02 03:37:52;;;;;;;38.90;27.70;;;6.50;99.90;;;;;;5089126;28;20237;-80
2021/05/02 03:40:19;;;;;;;37.65;27.92;;;6.40;99.90;;;;;;5096400;28;20203;-79
2021/05/02 03:42:47;;;;;;;37.55;28.42;;;6.40;99.90;;;;;;5096999;28;20186;-80
2021/05/02 03:45:15;;;;;;;35.58;27.67;;;6.50;99.90;;;;;;5097572;28;20679;-79
2021/05/02 03:47:43;;;;;;;39.25;28.65;;;6.60;99.90;;;;;;5107674;28;20679;-80
2021/05/02 03:50:12;;;;;;;39.25;29.17;;;6.60;99.90;;;;;;5108606;28;20648;-80
2021/05/02 03:52:39;;;;;;;39.20;29.90;;;6.60;99.90;;;;;;5101540;28;20214;-79
2021/05/02 03:55:10;;;;;;;35.72;26.55;;;6.70;99.90;;;;;;5096133;28;20647;-79
2021/05/02 03:57:38;;;;;;;37.03;28.40;;;6.70;99.90;;;;;;5106837;28;20256;-80
2021/05/02 04:00:06;;;;;;;35.90;28.20;;;6.70;99.90;;;;;;5095903;28;20198;-80
2021/05/02 04:02:36;;;;;;;37.28;27.45;;;6.70;99.90;;;;;;5091877;28;20210;-79
2021/05/02 04:05:05;;;;;;;43.83;29.80;;;6.80;99.90;;;;;;5092297;28;20205;-79
2021/05/02 04:07:31;;;;;;;33.40;25.13;;;6.70;99.90;;;;;;5091631;28;20199;-79
2021/05/02 04:09:58;;;;;;;39.35;28.77;;;6.70;99.90;;;;;;5100413;28;20225;-80
2021/05/02 04:12:26;;;;;;;41.47;30.00;;;6.70;99.90;;;;;;5112111;28;20609;-80
2021/05/02 04:14:54;;;;;;;37.45;31.20;;;6.90;99.90;;;;;;5109959;28;20270;-79
2021/05/02 04:17:22;;;;;;;42.05;33.10;;;7.00;99.90;;;;;;5111729;28;20667;-79
2021/05/02 04:19:52;;;;;;;51.15;36.78;;;7.00;99.90;;;;;;5105216;28;20289;-80
2021/05/02 04:22:21;;;;;;;44.30;33.65;;;7.00;99.90;;;;;;5104192;28;20183;-80
2021/05/02 04:24:49;;;;;;;39.25;29.40;;;7.00;99.90;;;;;;5091629;28;20230;-80
2021/05/02 04:27:17;;;;;;;40.60;29.83;;;7.10;99.90;;;;;;5110217;28;20659;-80
2021/05/02 04:29:45;;;;;;;35.28;28.90;;;6.90;99.90;;;;;;5107086;28;20231;-80
2021/05/02 04:32:13;;;;;;;38.65;27.20;;;7.00;99.90;;;;;;5103535;28;20218;-79
2021/05/02 04:34:41;;;;;;;35.08;27.90;;;7.10;99.90;;;;;;5102653;28;20698;-79
2021/05/02 04:37:08;;;;;;;39.50;30.25;;;7.20;99.90;;;;;;5092543;28;20610;-80
2021/05/02 04:39:36;;;;;;;38.40;29.63;;;7.20;99.90;;;;;;5098211;28;20220;-79
2021/05/02 04:42:04;;;;;;;40.45;30.08;;;7.20;99.90;;;;;;5111706;28;20209;-79
2021/05/02 04:44:30;;;;;;;42.63;28.08;;;7.30;99.90;;;;;;5096474;28;20282;-79
2021/05/02 04:47:00;;;;;;;39.38;29.45;;;7.30;99.90;;;;;;5097987;28;20204;-79
2021/05/02 04:49:27;;;;;;;35.97;27.38;;;7.40;99.90;;;;;;5099776;28;20278;-78
2021/05/02 04:51:54;;;;;;;37.13;28.88;;;7.40;99.90;;;;;;5106773;28;20345;-79
2021/05/02 04:54:21;;;;;;;40.22;30.98;;;7.30;99.90;;;;;;5105272;28;20324;-79
2021/05/02 04:56:48;;;;;;;37.58;28.88;;;7.30;99.90;;;;;;5110383;28;20225;-79
2021/05/02 04:59:16;;;;;;;36.75;28.05;;;7.40;99.90;;;;;;5106845;28;20198;-79
2021/05/02 05:01:44;;;;;;;38.03;29.73;;;7.20;99.90;;;;;;5108508;28;21014;-79
2021/05/02 05:04:13;;;;;;;36.30;27.10;;;7.50;99.90;;;;;;5100295;28;20201;-79
2021/05/02 05:06:41;;;;;;;36.38;28.17;;;7.50;99.90;;;;;;5109184;28;20194;-79
2021/05/02 05:09:08;;;;;;;37.08;28.83;;;7.60;99.90;;;;;;5095577;28;20194;-79
2021/05/02 05:11:36;;;;;;;37.75;28.60;;;7.60;99.90;;;;;;5098450;28;20230;-79
2021/05/02 05:14:03;;;;;;;36.85;28.33;;;7.70;99.90;;;;;;5102300;28;20221;-79
2021/05/02 05:16:30;;;;;;;37.33;27.27;;;7.60;99.90;;;;;;5091841;28;20203;-79
2021/05/02 05:18:57;;;;;;;38.22;28.70;;;7.60;99.90;;;;;;5101580;28;20194;-79
2021/05/02 05:21:25;;;;;;;36.00;27.20;;;7.70;99.90;;;;;;5089647;28;20198;-79
2021/05/02 05:23:53;;;;;;;31.83;25.58;;;7.70;99.90;;;;;;5090850;28;20559;-79
2021/05/02 05:26:20;;;;;;;40.15;27.55;;;7.90;99.90;;;;;;5090775;28;20203;-79
2021/05/02 05:28:47;;;;;;;35.30;26.63;;;7.90;99.90;;;;;;5106218;28;20194;-79
2021/05/02 05:31:14;;;;;;;38.30;29.42;;;8.00;99.90;;;;;;5107104;28;20762;-79
2021/05/02 05:33:42;;;;;;;33.97;28.67;;;8.10;99.90;;;;;;5094846;28;20247;-79
2021/05/02 05:36:10;;;;;;;30.45;26.38;;;8.00;99.90;;;;;;5094652;28;20716;-79
2021/05/02 05:38:37;;;;;;;31.75;26.83;;;8.10;99.90;;;;;;5096811;28;20244;-80
2021/05/02 05:41:04;;;;;;;32.60;27.48;;;8.20;99.90;;;;;;5100561;28;20658;-79
2021/05/02 05:43:31;;;;;;;30.77;25.85;;;8.30;99.90;;;;;;5109039;28;20221;-79
2021/05/02 05:45:58;;;;;;;36.72;28.38;;;8.30;99.90;;;;;;5097773;28;20202;-79
2021/05/02 05:48:25;;;;;;;33.30;26.50;;;8.40;99.90;;;;;;5093401;28;20235;-79
2021/05/02 05:50:52;;;;;;;38.67;28.50;;;8.40;99.90;;;;;;5089734;28;20351;-79
2021/05/02 05:53:20;;;;;;;30.23;25.20;;;8.40;99.90;;;;;;5103486;28;20237;-81
2021/05/02 05:55:47;;;;;;;33.22;24.67;;;8.40;99.90;;;;;;5114740;28;20279;-80
2021/05/02 05:58:14;;;;;;;36.38;26.13;;;8.40;99.90;;;;;;5095139;28;20208;-80
2021/05/02 06:00:40;;;;;;;34.65;26.02;;;8.50;99.90;;;;;;5096916;28;20566;-80
2021/05/02 06:03:07;;;;;;;31.25;25.05;;;8.50;99.90;;;;;;5095045;28;20205;-80
2021/05/02 06:05:33;;;;;;;35.42;26.45;;;8.60;99.90;;;;;;5113636;28;20201;-79
2021/05/02 06:07:59;;;;;;;31.63;25.27;;;8.70;99.90;;;;;;5085694;28;20256;-79
2021/05/02 06:10:26;;;;;;;32.00;25.25;;;8.60;99.90;;;;;;5078245;28;20200;-80
2021/05/02 06:12:54;;;;;;;34.47;26.30;;;8.80;99.90;;;;;;5075362;28;20708;-80
2021/05/02 06:15:21;;;;;;;27.90;24.20;;;9.10;99.90;;;;;;5107129;28;20277;-80
2021/05/02 06:17:47;;;;;;;30.08;23.88;;;9.10;99.90;;;;;;5093690;28;20252;-80
2021/05/02 06:20:14;;;;;;;33.50;26.02;;;9.00;99.90;;;;;;5112711;28;20198;-80
2021/05/02 06:22:40;;;;;;;31.20;24.80;;;8.70;99.70;;;;;;5104391;28;20225;-80
2021/05/02 06:25:08;;;;;;;29.98;23.27;;;8.80;99.90;;;;;;5113730;28;20236;-80
2021/05/02 06:27:35;;;;;;;25.10;22.23;;;8.60;99.30;;;;;;5094191;28;20203;-80
2021/05/02 06:30:03;;;;;;;28.85;23.13;;;8.60;99.60;;;;;;5102830;28;20244;-80
2021/05/02 06:32:29;;;;;;;28.33;23.58;;;8.60;99.90;;;;;;5101555;28;20233;-80
2021/05/02 06:34:56;;;;;;;27.92;23.35;;;8.70;99.90;;;;;;5112057;28;20599;-80
2021/05/02 06:37:23;;;;;;;30.38;23.38;;;8.40;99.90;;;;;;5091814;28;20251;-80
2021/05/02 06:39:50;;;;;;;29.27;24.25;;;8.50;99.90;;;;;;5108429;28;20205;-80
2021/05/02 06:42:16;;;;;;;27.63;23.55;;;8.70;99.90;;;;;;5104798;28;20183;-80
2021/05/02 06:44:43;;;;;;;28.67;23.50;;;8.70;99.90;;;;;;5095420;28;20199;-79
2021/05/02 06:47:10;;;;;;;28.55;24.25;;;8.90;99.90;;;;;;5095165;28;20281;-80
2021/05/02 06:49:36;;;;;;;25.65;21.20;;;8.70;99.10;;;;;;5096806;28;20561;-80
2021/05/02 06:52:03;;;;;;;26.73;22.70;;;8.80;99.50;;;;;;5098254;28;20218;-80
2021/05/02 06:54:30;;;;;;;25.48;21.80;;;8.70;99.70;;;;;;5098654;28;20198;-80
2021/05/02 06:56:56;;;;;;;26.05;21.90;;;8.90;99.80;;;;;;5105104;28;20206;-80
2021/05/02 06:59:23;;;;;;;23.38;20.80;;;9.10;99.90;;;;;;5098180;28;20207;-80
2021/05/02 07:01:49;;;;;;;26.67;21.95;;;9.00;98.70;;;;;;5102389;28;20206;-80
2021/05/02 07:04:17;;;;;;;24.83;21.65;;;9.00;99.10;;;;;;5099891;28;20274;-80
2021/05/02 07:06:43;;;;;;;23.83;20.95;;;9.10;98.90;;;;;;5094694;28;20190;-81
2021/05/02 07:09:10;;;;;;;25.60;22.20;;;8.80;99.40;;;;;;5092241;28;20206;-80
2021/05/02 07:11:36;;;;;;;24.05;20.35;;;8.70;99.90;;;;;;5102049;28;20216;-79
2021/05/02 07:14:03;;;;;;;23.33;20.80;;;8.50;99.90;;;;;;5096043;28;20210;-80
2021/05/02 07:16:29;;;;;;;21.83;19.20;;;8.40;99.60;;;;;;5112220;28;20209;-80
2021/05/02 07:18:56;;;;;;;25.20;22.38;;;8.60;99.90;;;;;;5108220;28;20214;-80
2021/05/02 07:21:23;;;;;;;25.23;20.60;;;8.90;99.90;;;;;;5101383;28;20202;-80
2021/05/02 07:23:51;;;;;;;23.17;19.40;;;8.90;99.90;;;;;;5102437;28;20194;-81
2021/05/02 07:26:18;;;;;;;24.17;20.15;;;8.90;99.70;;;;;;5094009;28;20209;-80
2021/05/02 07:28:51;;;;;;;22.58;18.45;;;9.00;99.90;;;;;;5105583;28;20242;-80
2021/05/02 07:31:18;;;;;;;21.10;17.95;;;8.90;98.30;;;;;;5101412;28;20279;-80
2021/05/02 07:33:45;;;;;;;21.45;19.08;;;8.80;99.10;;;;;;5092617;28;20198;-79
2021/05/02 07:36:14;;;;;;;19.98;17.60;;;8.80;98.70;;;;;;5094757;28;20198;-80
2021/05/02 07:38:44;;;;;;;19.90;17.80;;;8.70;97.60;;;;;;5100362;28;20191;-79
2021/05/02 07:41:11;;;;;;;22.23;19.85;;;8.70;98.00;;;;;;5093674;28;20195;-80
2021/05/02 07:43:39;;;;;;;21.00;18.75;;;8.60;98.00;;;;;;5094677;28;20210;-80
2021/05/02 07:46:06;;;;;;;20.58;18.05;;;8.70;98.70;;;;;;5093286;28;20236;-80
2021/05/02 07:48:32;;;;;;;22.23;19.83;;;9.00;99.40;;;;;;5095715;28;20206;-80
2021/05/02 07:50:59;;;;;;;23.90;18.70;;;9.20;98.40;;;;;;5093558;28;20209;-80
2021/05/02 07:53:25;;;;;;;22.77;19.48;;;9.10;97.90;;;;;;5097776;28;20575;-80
2021/05/02 07:55:52;;;;;;;21.95;18.67;;;9.20;96.20;;;;;;5108626;28;20203;-80
2021/05/02 07:58:19;;;;;;;23.52;18.08;;;9.20;96.50;;;;;;5097501;28;20194;-80
2021/05/02 08:00:45;;;;;;;22.23;17.85;;;9.20;97.20;;;;;;5092736;28;20193;-80
2021/05/02 08:03:12;;;;;;;21.20;16.63;;;9.30;97.40;;;;;;5094216;28;20206;-80
2021/05/02 08:05:38;;;;;;;21.88;18.77;;;9.50;97.50;;;;;;5093882;28;20990;-80
2021/05/02 08:08:06;;;;;;;17.90;16.00;;;9.30;96.40;;;;;;5099377;28;20210;-79
2021/05/02 08:10:32;;;;;;;18.55;15.20;;;9.10;95.60;;;;;;5093472;28;20634;-80
2021/05/02 08:13:00;;;;;;;19.08;17.08;;;8.80;95.10;;;;;;5091458;28;20910;-80
2021/05/02 08:15:27;;;;;;;19.38;16.65;;;8.60;95.60;;;;;;5094246;28;20278;-80
2021/05/02 08:17:54;;;;;;;21.67;17.15;;;8.60;96.00;;;;;;5105470;28;20227;-79
2021/05/02 08:20:20;;;;;;;18.92;16.70;;;8.70;95.10;;;;;;5099778;28;20234;-79
2021/05/02 08:22:46;;;;;;;19.98;17.38;;;8.80;95.70;;;;;;5091376;28;20588;-81
2021/05/02 08:25:13;;;;;;;19.05;16.90;;;8.90;95.80;;;;;;5094351;28;20206;-80
2021/05/02 08:27:39;;;;;;;19.83;16.15;;;9.00;95.20;;;;;;5098790;28;20214;-81
2021/05/02 08:30:08;;;;;;;19.95;17.38;;;9.20;94.90;;;;;;5102132;28;20257;-81
2021/05/02 08:32:35;;;;;;;24.65;18.50;;;9.60;94.30;;;;;;5092992;28;20293;-79
2021/05/02 08:35:02;;;;;;;20.60;18.30;;;10.10;93.60;;;;;;5092532;28;20218;-80
2021/05/02 08:37:29;;;;;;;22.73;18.33;;;10.50;91.20;;;;;;5091406;28;20652;-80
2021/05/02 08:39:55;;;;;;;19.83;17.90;;;10.40;91.70;;;;;;5095885;28;20194;-80
2021/05/02 08:42:22;;;;;;;18.20;16.37;;;10.40;91.10;;;;;;5098543;28;20276;-81
2021/05/02 08:44:49;;;;;;;18.47;16.57;;;10.30;90.30;;;;;;5100775;28;20609;-80
2021/05/02 08:47:16;;;;;;;19.70;17.07;;;10.30;90.10;;;;;;5104525;28;20624;-80
2021/05/02 08:49:43;;;;;;;19.70;16.70;;;10.30;90.00;;;;;;5089611;28;20612;-81
2021/05/02 08:52:11;;;;;;;18.60;16.70;;;10.20;89.30;;;;;;5088821;28;21494;-80
2021/05/02 08:54:37;;;;;;;17.67;15.27;;;10.30;89.30;;;;;;5090308;28;20648;-81
2021/05/02 08:57:05;;;;;;;16.77;14.93;;;10.20;86.70;;;;;;5089385;28;20666;-80
2021/05/02 08:59:32;;;;;;;18.63;15.75;;;10.40;90.20;;;;;;5090160;28;20648;-80
2021/05/02 09:02:11;;;;;;;18.90;16.13;;;10.60;86.20;;;;;;5089929;28;20198;-80
2021/05/02 09:04:51;;;;;;;19.63;17.53;;;10.90;87.90;;;;;;5092135;28;20616;-80
2021/05/02 09:07:17;;;;;;;18.33;16.47;;;10.60;86.20;;;;;;5105360;28;21243;-80
2021/05/02 09:09:45;;;;;;;19.73;16.93;;;10.70;85.80;;;;;;5107578;28;20714;-80
2021/05/02 09:12:21;;;;;;;18.30;16.50;;;10.60;84.70;;;;;;5096034;28;20682;-81
2021/05/02 09:14:47;;;;;;;18.80;15.90;;;10.80;83.20;;;;;;5100658;28;20967;-80
2021/05/02 09:17:17;;;;;;;19.57;17.43;;;10.70;82.50;;;;;;5107590;28;20971;-81
2021/05/02 09:19:52;;;;;;;17.80;16.10;;;10.50;84.90;;;;;;5094587;28;20655;-81
2021/05/02 09:22:20;;;;;;;18.40;16.57;;;10.70;83.40;;;;;;5102065;28;20638;-81
2021/05/02 09:24:59;;;;;;;17.63;15.37;;;10.90;84.80;;;;;;5105630;28;20646;-81
2021/05/02 09:27:26;;;;;;;17.47;15.67;;;10.90;84.50;;;;;;5093448;28;20719;-81
2021/05/02 09:29:53;;;;;;;27.20;23.07;;;11.30;81.80;;;;;;5107024;28;21361;-81
2021/05/02 09:32:23;;;;;;;18.13;15.27;;;11.30;80.20;;;;;;5097109;28;20711;-81
2021/05/02 09:34:52;;;;;;;17.07;15.30;;;11.30;75.20;;;;;;5101878;28;20627;-81
2021/05/02 09:37:20;;;;;;;16.50;14.77;;;11.20;72.70;;;;;;5094989;28;20659;-81
2021/05/02 09:39:49;;;;;;;17.23;14.27;;;11.40;74.80;;;;;;5089890;28;20634;-81
2021/05/02 09:42:17;;;;;;;17.07;15.37;;;11.40;76.10;;;;;;5090966;28;20620;-81
2021/05/02 09:44:46;;;;;;;18.63;16.63;;;11.60;77.60;;;;;;5091444;28;20612;-81
2021/05/02 09:47:29;;;;;;;18.47;16.57;;;11.40;74.20;;;;;;5089449;28;20644;-81
2021/05/02 09:50:11;;;;;;;17.90;16.00;;;11.40;77.00;;;;;;5091897;28;20615;-81
2021/05/02 09:52:49;;;;;;;18.60;16.70;;;11.00;75.60;;;;;;5089239;28;20647;-82
2021/05/02 09:55:34;;;;;;;20.93;16.13;;;10.80;74.90;;;;;;5091061;28;20636;-81
2021/05/02 09:58:05;;;;;;;22.10;17.70;;;10.70;74.00;;;;;;5071636;28;20711;-81
2021/05/02 10:00:42;;;;;;;18.67;16.67;;;10.80;75.40;;;;;;5083753;28;20620;-81
2021/05/02 10:03:11;;;;;;;15.73;14.17;;;11.00;75.60;;;;;;5090030;28;20653;-81
2021/05/02 10:05:52;;;;;;;19.60;16.10;;;11.50;77.10;;;;;;5089862;28;20619;-81
2021/05/02 10:08:21;;;;;;;18.30;16.33;;;11.90;74.40;;;;;;5089806;28;20640;-81
2021/05/02 10:10:47;;;;;;;17.43;15.63;;;12.00;68.90;;;;;;5089064;28;20648;-82
2021/05/02 10:13:14;;;;;;;18.30;16.50;;;11.90;69.10;;;;;;5071622;28;20644;-81
2021/05/02 10:15:44;;;;;;;16.90;15.20;;;12.20;71.30;;;;;;5090270;28;20612;-81
2021/05/02 10:18:11;;;;;;;15.53;13.97;;;12.40;71.80;;;;;;5090126;28;20613;-81
2021/05/02 10:20:37;;;;;;;16.30;14.70;;;11.90;66.00;;;;;;5089420;28;20600;-81
2021/05/02 10:23:07;;;;;;;18.23;15.83;;;11.70;66.70;;;;;;5089325;28;20715;-81
2021/05/02 10:25:36;;;;;;;18.53;15.27;;;11.50;65.10;;;;;;5089311;28;20663;-81
2021/05/02 10:28:02;;;;;;;18.23;15.33;;;11.20;64.00;;;;;;5089985;28;21192;-81
2021/05/02 10:30:31;;;;;;;18.67;16.77;;;11.10;66.60;;;;;;5089436;28;20615;-81
2021/05/02 10:33:03;;;;;;;16.50;14.93;;;11.10;68.90;;;;;;5089617;28;20714;-81
2021/05/02 10:35:47;;;;;;;16.90;15.20;;;11.50;67.50;;;;;;5089905;28;20662;-81
2021/05/02 10:38:19;;;;;;;17.87;16.10;;;11.40;68.10;;;;;;5087775;28;20731;-81
2021/05/02 10:40:45;;;;;;;17.40;15.53;;;11.80;69.90;;;;;;5093058;28;21000;-81
2021/05/02 10:43:28;;;;;;;19.77;16.90;;;12.20;66.50;;;;;;5093313;28;20666;-82
2021/05/02 10:45:55;;;;;;;16.37;14.63;;;11.70;67.00;;;;;;5093450;28;20623;-82
2021/05/02 10:48:38;;;;;;;17.30;15.63;;;11.80;65.40;;;;;;5093505;28;20620;-81
2021/05/02 10:51:30;;;;;;;17.00;15.30;;;12.30;65.50;;;;;;5099528;28;20631;-81
2021/05/02 10:54:11;;;;;;;18.27;16.37;;;12.70;64.50;;;;;;5113864;28;21051;-82
2021/05/02 10:56:46;;;;;;;19.67;17.43;;;12.80;66.50;;;;;;5113759;28;20619;-81
2021/05/02 10:59:13;;;;;;;17.50;15.77;;;12.50;62.30;;;;;;5092813;28;20609;-82
2021/05/02 11:01:42;;;;;;;15.97;14.10;;;12.80;60.40;;;;;;5093261;28;20639;-81
2021/05/02 11:04:09;;;;;;;17.97;15.97;;;12.90;59.30;;;;;;5093433;28;21008;-82
2021/05/02 11:06:55;;;;;;;15.20;13.70;;;13.20;59.40;;;;;;5093378;28;21181;-82
2021/05/02 11:09:29;;;;;;;17.30;15.60;;;13.70;58.90;;;;;;5092725;28;20716;-81
2021/05/02 11:11:58;;;;;;;18.67;16.90;;;13.80;57.70;;;;;;5093120;28;20960;-81
2021/05/02 11:14:32;;;;;;;17.07;15.47;;;13.80;56.10;;;;;;5093225;28;20617;-82
2021/05/02 11:17:19;;;;;;;17.50;15.40;;;13.60;56.60;;;;;;5074573;28;20633;-81
2021/05/02 11:19:47;;;;;;;15.97;14.37;;;14.20;57.60;;;;;;5092607;28;20699;-83
2021/05/02 11:22:17;;;;;;;17.83;16.03;;;14.50;57.10;;;;;;5094025;28;20618;-82
2021/05/02 11:24:55;;;;;;;15.80;14.40;;;14.30;56.40;;;;;;5096790;28;20614;-82
2021/05/02 11:27:42;;;;;;;16.30;14.80;;;14.00;58.50;;;;;;5092416;28;20618;-82
2021/05/02 11:30:21;;;;;;;17.00;15.30;;;13.20;59.20;;;;;;5089682;28;21003;-82
2021/05/02 11:32:50;;;;;;;16.37;14.77;;;12.30;58.60;;;;;;5092630;28;20656;-81
2021/05/02 11:35:18;;;;;;;15.80;13.93;;;11.60;62.00;;;;;;5092840;28;20620;-82
2021/05/02 11:37:51;;;;;;;12.17;11.07;;;11.10;63.90;;;;;;5092409;28;20676;-82
2021/05/02 11:40:42;;;;;;;14.07;12.63;;;11.10;65.30;;;;;;5092430;28;20648;-82
2021/05/02 11:43:12;;;;;;;17.03;12.53;;;11.20;68.60;;;;;;5091154;28;20623;-82
2021/05/02 11:45:50;;;;;;;12.73;11.63;;;11.40;69.70;;;;;;5092866;28;20880;-82
2021/05/02 11:48:21;;;;;;;13.00;11.87;;;12.10;68.00;;;;;;5091887;28;21240;-82
2021/05/02 11:50:49;;;;;;;12.53;11.50;;;12.20;66.50;;;;;;5091634;28;20616;-82
2021/05/02 11:53:40;;;;;;;13.37;12.17;;;11.90;65.20;;;;;;5091889;28;20649;-82
2021/05/02 11:56:19;;;;;;;14.93;12.20;;;12.30;66.90;;;;;;5092179;28;20620;-82
2021/05/02 11:58:46;;;;;;;14.47;13.10;;;12.20;68.10;;;;;;5091380;28;20624;-82
2021/05/02 12:01:21;;;;;;;15.43;13.90;;;11.90;66.10;;;;;;5071326;28;20632;-82
2021/05/02 12:03:48;;;;;;;15.07;13.73;;;12.30;67.90;;;;;;5071777;28;20612;-82
2021/05/02 12:06:23;;;;;;;16.23;14.60;;;12.20;67.80;;;;;;5088866;28;21034;-83
2021/05/02 12:08:58;;;;;;;16.57;14.80;;;12.60;68.70;;;;;;5091589;28;20620;-83
2021/05/02 12:11:28;;;;;;;15.80;14.27;;;13.60;67.60;;;;;;5091433;28;20637;-82
2021/05/02 12:13:57;;;;;;;15.27;13.90;;;15.80;63.00;;;;;;5091344;28;20632;-84
2021/05/02 12:16:25;;;;;;;15.43;14.00;;;17.80;58.20;;;;;;5092000;28;20654;-83
2021/05/02 12:18:54;;;;;;;16.97;15.40;;;16.70;57.60;;;;;;5092171;28;20658;-82
2021/05/02 12:21:26;;;;;;;14.90;13.50;;;15.40;59.00;;;;;;5092114;28;20628;-82
2021/05/02 12:23:55;;;;;;;19.33;17.53;;;13.00;59.30;;;;;;5091939;28;21162;-80
2021/05/02 12:26:22;;;;;;;14.60;13.27;;;12.00;65.40;;;;;;5091876;28;20628;-82
2021/05/02 12:28:50;;;;;;;11.93;10.50;;;11.00;71.40;;;;;;5092070;28;20627;-81
2021/05/02 12:31:17;;;;;;;10.50;9.50;;;9.90;81.80;;;;;;5088564;28;20628;-81
2021/05/02 12:33:44;;;;;;;10.87;9.77;;;9.20;89.30;;;;;;5091739;28;20664;-81
2021/05/02 12:36:14;;;;;;;10.35;9.35;;;8.90;92.10;;;;;;5094943;28;20643;-81
2021/05/02 12:38:41;;;;;;;11.35;10.25;;;8.60;92.60;;;;;;5112132;28;20205;-81
2021/05/02 12:41:18;;;;;;;11.35;10.10;;;9.00;95.00;;;;;;5111176;28;20710;-82
2021/05/02 12:43:49;;;;;;;12.18;9.90;;;9.50;94.70;;;;;;5111930;28;20200;-81